Time;durP1;ratioP1;P1;durP2;ratioP2;P2;SDS_P1;SDS_P2;PMS_P1;PMS_P2;Temp;Humidity;BMP_temperature;BMP_pressure;BME280_temperature;BME280_humidity;BME280_pressure;Samples;Min_cycle;Max_cycle;Signal;HPM_P1;HPM_P2
2021/12/19 00:09:36;;;;;;;20.53;10.50;;;;;;;;;;4218059;28;20593;-65
2021/12/19 00:12:04;;;;;;;17.53;8.53;;;;;;;;;;4218944;28;20239;-67
2021/12/19 00:14:30;;;;;;;23.30;10.17;;;;;;;;;;4210026;28;22539;-65
2021/12/19 00:16:57;;;;;;;18.83;8.10;;;;;;;;;;4206573;28;20231;-65
2021/12/19 00:19:23;;;;;;;22.83;10.70;;;;;;;;;;4199776;28;20232;-67
2021/12/19 00:21:50;;;;;;;20.17;10.87;;;;;;;;;;4186699;28;20334;-67
2021/12/19 00:24:16;;;;;;;23.53;11.23;;;;;;;;;;4201090;28;20320;-67
2021/12/19 00:26:43;;;;;;;23.30;11.00;;;;;;;;;;4196139;28;21106;-65
2021/12/19 00:29:09;;;;;;;23.63;11.13;;;;;;;;;;4192421;28;20359;-66
2021/12/19 00:31:37;;;;;;;23.20;10.90;;;;;;;;;;4203086;28;20240;-64
2021/12/19 00:34:03;;;;;;;27.37;11.27;;;;;;;;;;4204106;28;20371;-66
2021/12/19 00:36:30;;;;;;;24.33;12.43;;;;;;;;;;4179526;28;20310;-67
2021/12/19 00:38:56;;;;;;;21.60;11.03;;;;;;;;;;4204857;28;20235;-64
2021/12/19 00:41:23;;;;;;;19.97;11.07;;;;;;;;;;4203014;28;20943;-66
2021/12/19 00:44:07;;;;;;;19.93;9.70;;;;;;;;;;4200880;28;20244;-69
2021/12/19 00:46:43;;;;;;;22.70;10.70;;;;;;;;;;4181904;28;20440;-66
2021/12/19 00:49:10;;;;;;;19.97;10.17;;;;;;;;;;4204097;28;20232;-65
2021/12/19 00:51:36;;;;;;;20.30;9.10;;;;;;;;;;4195000;28;21179;-67
2021/12/19 00:54:04;;;;;;;18.13;9.03;;;;;;;;;;4214784;28;20401;-67
2021/12/19 00:56:30;;;;;;;17.53;8.23;;;;;;;;;;4202885;28;24182;-66
2021/12/19 00:58:58;;;;;;;15.60;7.57;;;;;;;;;;4168375;28;20355;-66
2021/12/19 01:01:24;;;;;;;12.77;6.20;;;;;;;;;;4178418;28;21246;-64
2021/12/19 01:03:51;;;;;;;13.00;7.43;;;;;;;;;;4192095;28;20401;-65
2021/12/19 01:06:19;;;;;;;14.20;7.00;;;;;;;;;;4186630;28;20225;-65
2021/12/19 01:08:46;;;;;;;14.17;6.87;;;;;;;;;;4182603;28;20324;-67
2021/12/19 01:11:12;;;;;;;14.37;7.07;;;;;;;;;;4187682;28;20369;-65
2021/12/19 01:13:38;;;;;;;13.47;7.23;;;;;;;;;;4190854;28;20751;-65
2021/12/19 01:16:05;;;;;;;14.40;7.10;;;;;;;;;;4205318;28;20249;-65
2021/12/19 01:18:32;;;;;;;13.57;6.77;;;;;;;;;;4188854;28;20310;-65
2021/12/19 01:20:58;;;;;;;16.30;7.17;;;;;;;;;;4185557;28;20259;-66
2021/12/19 01:23:25;;;;;;;11.80;6.30;;;;;;;;;;4185951;28;20293;-65
2021/12/19 01:25:52;;;;;;;15.33;7.90;;;;;;;;;;4192069;28;20311;-66
2021/12/19 01:28:18;;;;;;;14.93;7.70;;;;;;;;;;4192481;28;20238;-65
2021/12/19 01:30:46;;;;;;;14.67;7.23;;;;;;;;;;4195022;28;21215;-66
2021/12/19 01:33:12;;;;;;;12.70;7.40;;;;;;;;;;4191323;28;20239;-67
2021/12/19 01:35:39;;;;;;;16.10;8.43;;;;;;;;;;4172236;28;20236;-67
2021/12/19 01:38:05;;;;;;;16.30;8.07;;;;;;;;;;4193825;28;20813;-66
2021/12/19 01:40:32;;;;;;;16.47;8.40;;;;;;;;;;4190222;28;20233;-66
2021/12/19 01:42:58;;;;;;;14.83;8.00;;;;;;;;;;4192794;28;20336;-67
2021/12/19 01:45:29;;;;;;;16.07;8.30;;;;;;;;;;4195818;28;23470;-66
2021/12/19 01:47:56;;;;;;;14.57;7.90;;;;;;;;;;4198281;28;20225;-65
2021/12/19 01:50:23;;;;;;;13.97;6.97;;;;;;;;;;4213794;28;20289;-68
2021/12/19 01:52:49;;;;;;;16.33;8.67;;;;;;;;;;4200458;28;20294;-67
2021/12/19 01:55:16;;;;;;;15.33;7.97;;;;;;;;;;4195364;28;21210;-66
2021/12/19 01:57:43;;;;;;;14.60;8.33;;;;;;;;;;4184764;28;20528;-65
2021/12/19 02:00:20;;;;;;;15.00;8.10;;;;;;;;;;4218636;28;20397;-67
2021/12/19 02:02:47;;;;;;;13.83;7.23;;;;;;;;;;4179202;28;20245;-66
2021/12/19 02:05:13;;;;;;;14.77;8.00;;;;;;;;;;4191940;28;23444;-65
2021/12/19 02:07:46;;;;;;;14.47;7.23;;;;;;;;;;4200811;28;21813;-66
2021/12/19 02:10:22;;;;;;;14.47;7.53;;;;;;;;;;4195534;28;20273;-66
2021/12/19 02:12:50;;;;;;;13.10;7.57;;;;;;;;;;4193304;28;20373;-66
2021/12/19 02:15:18;;;;;;;14.53;7.93;;;;;;;;;;4192092;28;20504;-69
2021/12/19 02:17:45;;;;;;;14.00;7.93;;;;;;;;;;4174294;28;20844;-67
2021/12/19 02:20:13;;;;;;;11.37;6.40;;;;;;;;;;4191293;28;20259;-66
2021/12/19 02:22:39;;;;;;;12.33;7.03;;;;;;;;;;4193778;28;20248;-67
2021/12/19 02:25:07;;;;;;;11.17;6.47;;;;;;;;;;4188116;28;20244;-68
2021/12/19 02:27:33;;;;;;;11.87;6.37;;;;;;;;;;4200197;28;20322;-65
2021/12/19 02:30:01;;;;;;;15.40;7.70;;;;;;;;;;4199805;28;20237;-66
2021/12/19 02:32:29;;;;;;;10.17;6.50;;;;;;;;;;4182591;28;20331;-65
2021/12/19 02:34:58;;;;;;;15.40;6.60;;;;;;;;;;4196085;28;20233;-67
2021/12/19 02:48:11;;;;;;;14.67;8.03;;;;;;;;;;4161786;28;20249;-65
2021/12/19 02:50:44;;;;;;;14.07;6.83;;;;;;;;;;4187756;28;20239;-67
2021/12/19 02:53:11;;;;;;;14.97;7.37;;;;;;;;;;4197115;28;20237;-65
2021/12/19 02:55:38;;;;;;;14.10;7.93;;;;;;;;;;4203758;28;20404;-68
2021/12/19 02:58:05;;;;;;;17.70;7.23;;;;;;;;;;4209036;28;20335;-66
2021/12/19 03:00:32;;;;;;;17.63;7.60;;;;;;;;;;4199023;28;21152;-66
2021/12/19 03:02:58;;;;;;;15.67;7.20;;;;;;;;;;4211382;28;21187;-68
2021/12/19 03:05:25;;;;;;;12.90;6.60;;;;;;;;;;4201589;28;20243;-65
2021/12/19 03:07:54;;;;;;;14.97;7.50;;;;;;;;;;4203726;28;21108;-67
2021/12/19 03:18:26;;;;;;;14.53;7.43;;;;;;;;;;4206564;28;20839;-67
2021/12/19 03:20:53;;;;;;;13.93;8.37;;;;;;;;;;4198504;28;20310;-65
2021/12/19 03:23:19;;;;;;;13.03;6.60;;;;;;;;;;4211183;28;20235;-67
2021/12/19 03:25:48;;;;;;;11.87;6.63;;;;;;;;;;4200414;28;20365;-65
2021/12/19 03:28:14;;;;;;;11.30;6.60;;;;;;;;;;4212794;28;20634;-66
2021/12/19 03:30:43;;;;;;;12.57;6.40;;;;;;;;;;4222351;28;21182;-66
2021/12/19 03:33:11;;;;;;;14.33;6.77;;;;;;;;;;4198752;28;20689;-66
2021/12/19 03:35:38;;;;;;;15.83;7.47;;;;;;;;;;4202449;28;20239;-67
2021/12/19 03:38:05;;;;;;;11.60;6.13;;;;;;;;;;4218347;28;20449;-66
2021/12/19 03:40:38;;;;;;;11.27;6.27;;;;;;;;;;4198671;28;22614;-66
2021/12/19 03:43:06;;;;;;;11.77;6.37;;;;;;;;;;4200102;28;21485;-66
2021/12/19 03:45:34;;;;;;;10.50;6.23;;;;;;;;;;4193172;28;21456;-67
2021/12/19 03:48:01;;;;;;;13.67;6.67;;;;;;;;;;4198933;28;20236;-66
2021/12/19 03:50:28;;;;;;;11.27;6.10;;;;;;;;;;4205284;28;20708;-65
2021/12/19 03:52:54;;;;;;;10.40;5.50;;;;;;;;;;4212406;28;20307;-67
2021/12/19 03:55:22;;;;;;;14.43;6.67;;;;;;;;;;4217748;28;20283;-65
2021/12/19 03:57:48;;;;;;;11.33;6.10;;;;;;;;;;4207559;28;20235;-65
2021/12/19 04:00:16;;;;;;;12.13;5.97;;;;;;;;;;4188395;28;20280;-68
2021/12/19 04:02:42;;;;;;;13.03;6.83;;;;;;;;;;4199564;28;21600;-67
2021/12/19 04:05:09;;;;;;;11.10;5.87;;;;;;;;;;4205116;28;20244;-66
2021/12/19 04:07:35;;;;;;;13.50;5.90;;;;;;;;;;4206603;28;20240;-67
2021/12/19 04:10:02;;;;;;;12.37;6.40;;;;;;;;;;4196951;28;20267;-67
2021/12/19 04:12:30;;;;;;;15.10;6.13;;;;;;;;;;4194571;28;21275;-68
2021/12/19 04:14:56;;;;;;;13.30;6.17;;;;;;;;;;4195166;28;20307;-66
2021/12/19 04:17:22;;;;;;;10.67;5.33;;;;;;;;;;4222078;28;20228;-67
2021/12/19 04:19:49;;;;;;;10.63;5.77;;;;;;;;;;4209012;28;26003;-66
2021/12/19 04:22:15;;;;;;;13.33;5.07;;;;;;;;;;4202279;28;20658;-66
2021/12/19 04:24:42;;;;;;;10.73;5.07;;;;;;;;;;4203788;28;20232;-66
2021/12/19 04:27:08;;;;;;;12.00;6.00;;;;;;;;;;4196623;28;22864;-67
2021/12/19 04:29:34;;;;;;;11.10;5.70;;;;;;;;;;4202376;28;25459;-67
2021/12/19 04:32:01;;;;;;;10.00;5.07;;;;;;;;;;4207108;28;23559;-66
2021/12/19 04:34:27;;;;;;;10.43;4.80;;;;;;;;;;4215629;28;22022;-65
2021/12/19 04:37:01;;;;;;;10.97;5.20;;;;;;;;;;4198503;28;20280;-68
2021/12/19 04:50:57;;;;;;;10.00;4.70;;;;;;;;;;4206425;28;20233;-66
2021/12/19 04:53:30;;;;;;;14.43;5.77;;;;;;;;;;4191875;28;20373;-65
2021/12/19 05:01:15;;;;;;;12.53;6.60;;;;;;;;;;4186310;28;20231;-67
2021/12/19 05:14:49;;;;;;;16.97;7.77;;;;;;;;;;4190918;28;20718;-66
2021/12/19 05:17:21;;;;;;;18.40;8.67;;;;;;;;;;4191040;28;20302;-67
2021/12/19 05:20:06;;;;;;;18.73;9.03;;;;;;;;;;4190611;28;20426;-66
2021/12/19 05:22:38;;;;;;;22.63;9.87;;;;;;;;;;4200037;28;20291;-65
2021/12/19 05:25:14;;;;;;;24.17;10.70;;;;;;;;;;4184567;28;20230;-66
2021/12/19 05:27:51;;;;;;;24.83;9.97;;;;;;;;;;4198657;28;20954;-64
2021/12/19 05:30:18;;;;;;;20.60;10.80;;;;;;;;;;4186683;28;20293;-65
2021/12/19 05:32:45;;;;;;;24.17;11.10;;;;;;;;;;4189194;28;20241;-67
2021/12/19 05:35:14;;;;;;;26.53;11.80;;;;;;;;;;4186844;28;21256;-65
2021/12/19 05:45:56;;;;;;;25.43;12.73;;;;;;;;;;4184446;28;22958;-66
2021/12/19 05:48:22;;;;;;;28.07;11.87;;;;;;;;;;4191935;28;20233;-67
2021/12/19 05:50:48;;;;;;;27.87;13.07;;;;;;;;;;4198793;28;20231;-66
2021/12/19 05:53:15;;;;;;;24.67;11.73;;;;;;;;;;4191602;28;20358;-67
2021/12/19 05:55:42;;;;;;;27.13;12.10;;;;;;;;;;4185545;28;20308;-66
2021/12/19 05:58:08;;;;;;;23.73;11.30;;;;;;;;;;4214803;28;20232;-66
2021/12/19 06:00:35;;;;;;;25.90;12.20;;;;;;;;;;4199671;28;20232;-66
2021/12/19 06:03:02;;;;;;;28.37;11.70;;;;;;;;;;4209129;28;21202;-67
2021/12/19 06:05:29;;;;;;;22.27;11.30;;;;;;;;;;4187111;28;21644;-65
2021/12/19 06:07:55;;;;;;;27.43;12.20;;;;;;;;;;4189669;28;20243;-65
2021/12/19 06:10:22;;;;;;;26.17;11.67;;;;;;;;;;4208218;28;24411;-66
2021/12/19 06:12:49;;;;;;;29.03;12.27;;;;;;;;;;4198000;28;20230;-67
2021/12/19 06:15:15;;;;;;;22.03;11.10;;;;;;;;;;4198133;28;21381;-67
2021/12/19 06:17:44;;;;;;;24.30;9.70;;;;;;;;;;4180694;28;20252;-67
2021/12/19 06:20:11;;;;;;;27.23;11.53;;;;;;;;;;4179370;28;20230;-66
2021/12/19 06:22:38;;;;;;;35.10;10.43;;;;;;;;;;4195967;28;20324;-66
2021/12/19 06:25:06;;;;;;;24.00;10.57;;;;;;;;;;4184316;28;20312;-66
2021/12/19 06:27:32;;;;;;;30.47;10.00;;;;;;;;;;4192342;28;20280;-66
2021/12/19 06:29:59;;;;;;;25.33;8.87;;;;;;;;;;4195039;28;20235;-67
2021/12/19 06:32:25;;;;;;;18.87;9.23;;;;;;;;;;4185585;28;20884;-69
2021/12/19 06:34:51;;;;;;;17.47;8.60;;;;;;;;;;4193340;28;20237;-67
2021/12/19 06:37:18;;;;;;;20.90;8.00;;;;;;;;;;4198787;28;21824;-67
2021/12/19 06:39:44;;;;;;;19.80;8.33;;;;;;;;;;4181761;28;20901;-67
2021/12/19 06:42:11;;;;;;;15.27;7.60;;;;;;;;;;4184212;28;20254;-66
2021/12/19 06:44:37;;;;;;;16.87;7.67;;;;;;;;;;4198256;28;20241;-67
2021/12/19 06:47:03;;;;;;;20.60;7.47;;;;;;;;;;4183776;28;20246;-67
2021/12/19 06:49:30;;;;;;;18.73;6.43;;;;;;;;;;4182256;28;25308;-66
2021/12/19 06:51:56;;;;;;;19.03;6.93;;;;;;;;;;4188747;28;21323;-67
2021/12/19 06:54:23;;;;;;;16.60;6.50;;;;;;;;;;4214670;28;20251;-67
2021/12/19 06:56:49;;;;;;;13.17;6.40;;;;;;;;;;4202859;28;20500;-68
2021/12/19 06:59:16;;;;;;;16.83;6.13;;;;;;;;;;4211813;28;22478;-67
2021/12/19 07:01:42;;;;;;;18.77;6.70;;;;;;;;;;4196647;28;20233;-67
2021/12/19 07:04:08;;;;;;;13.97;6.03;;;;;;;;;;4209290;28;20232;-67
2021/12/19 07:06:35;;;;;;;16.03;6.53;;;;;;;;;;4195915;28;20229;-66
2021/12/19 07:09:02;;;;;;;12.60;6.37;;;;;;;;;;4208818;28;20343;-67
2021/12/19 07:11:29;;;;;;;14.77;6.30;;;;;;;;;;4207459;28;21708;-69
2021/12/19 07:13:55;;;;;;;17.53;7.03;;;;;;;;;;4197151;28;20244;-69
2021/12/19 07:16:22;;;;;;;15.07;7.40;;;;;;;;;;4213460;28;20231;-68
2021/12/19 07:18:48;;;;;;;14.33;7.57;;;;;;;;;;4202511;28;20232;-67
2021/12/19 07:21:15;;;;;;;14.03;7.20;;;;;;;;;;4215397;28;20300;-68
2021/12/19 07:23:41;;;;;;;13.13;6.77;;;;;;;;;;4223819;28;20249;-69
2021/12/19 07:26:08;;;;;;;14.70;6.93;;;;;;;;;;4209255;28;20547;-69
2021/12/19 07:28:34;;;;;;;13.13;6.23;;;;;;;;;;4230104;28;25601;-70
2021/12/19 07:31:01;;;;;;;14.43;6.43;;;;;;;;;;4236792;28;20243;-69
2021/12/19 07:33:28;;;;;;;16.37;6.73;;;;;;;;;;4223352;28;21195;-70
2021/12/19 07:35:55;;;;;;;16.97;7.07;;;;;;;;;;4205118;28;22288;-70
2021/12/19 07:38:34;;;;;;;17.77;7.30;;;;;;;;;;4209701;28;20248;-70
2021/12/19 07:41:02;;;;;;;20.63;7.40;;;;;;;;;;4210337;28;20291;-70
2021/12/19 07:43:29;;;;;;;23.13;6.97;;;;;;;;;;4205853;28;22997;-67
2021/12/19 07:45:56;;;;;;;17.03;7.57;;;;;;;;;;4190620;28;20224;-69
2021/12/19 07:48:23;;;;;;;12.30;6.47;;;;;;;;;;4204811;28;22789;-68
2021/12/19 07:50:49;;;;;;;20.30;7.03;;;;;;;;;;4199055;28;20240;-70
2021/12/19 07:53:16;;;;;;;23.83;7.60;;;;;;;;;;4205275;28;20666;-72
2021/12/19 07:55:43;;;;;;;17.27;7.07;;;;;;;;;;4201907;28;20283;-70
2021/12/19 07:58:10;;;;;;;22.20;7.70;;;;;;;;;;4198898;28;22326;-69
2021/12/19 08:00:36;;;;;;;16.73;7.63;;;;;;;;;;4198860;28;20256;-70
2021/12/19 08:03:03;;;;;;;13.60;7.53;;;;;;;;;;4191441;28;20420;-69
2021/12/19 08:05:30;;;;;;;15.47;7.47;;;;;;;;;;4198681;28;20284;-70
2021/12/19 08:08:01;;;;;;;16.83;7.27;;;;;;;;;;4200938;28;20531;-69
2021/12/19 08:13:00;;;;;;;16.50;8.03;;;;;;;;;;4189508;28;21089;-69
2021/12/19 08:15:27;;;;;;;14.23;6.97;;;;;;;;;;4190522;28;20306;-72
2021/12/19 08:17:54;;;;;;;17.60;7.93;;;;;;;;;;4198789;28;20283;-69
2021/12/19 08:20:20;;;;;;;16.67;6.80;;;;;;;;;;4189750;28;20291;-70
2021/12/19 08:22:49;;;;;;;13.40;6.90;;;;;;;;;;4199457;28;20285;-70
2021/12/19 08:25:15;;;;;;;16.43;6.53;;;;;;;;;;4210928;28;22103;-71
2021/12/19 08:27:42;;;;;;;17.27;6.63;;;;;;;;;;4191289;28;20245;-67
2021/12/19 08:30:09;;;;;;;15.97;6.73;;;;;;;;;;4209506;28;20731;-70
2021/12/19 08:32:36;;;;;;;18.40;7.30;;;;;;;;;;4198606;28;21743;-69
2021/12/19 08:35:04;;;;;;;17.13;7.13;;;;;;;;;;4200318;28;20411;-70
2021/12/19 08:37:30;;;;;;;18.83;7.33;;;;;;;;;;4205978;28;20248;-69
2021/12/19 08:39:57;;;;;;;18.00;7.17;;;;;;;;;;4177829;28;20237;-71
2021/12/19 08:42:24;;;;;;;16.07;6.37;;;;;;;;;;4204256;28;20301;-68
2021/12/19 08:44:50;;;;;;;15.20;6.03;;;;;;;;;;4190939;28;20235;-71
2021/12/19 08:47:17;;;;;;;14.63;5.57;;;;;;;;;;4189119;28;20383;-69
2021/12/19 08:49:43;;;;;;;15.50;5.20;;;;;;;;;;4192832;28;20455;-74
2021/12/19 08:52:10;;;;;;;17.33;5.73;;;;;;;;;;4208662;28;25205;-75
2021/12/19 08:54:37;;;;;;;15.80;5.37;;;;;;;;;;4201997;28;20267;-73
2021/12/19 08:57:04;;;;;;;13.50;4.63;;;;;;;;;;4188984;28;21936;-74
2021/12/19 08:59:30;;;;;;;15.43;4.30;;;;;;;;;;4190863;28;21580;-70
2021/12/19 09:02:00;;;;;;;14.60;4.77;;;;;;;;;;4202617;28;25598;-69
2021/12/19 09:04:27;;;;;;;14.17;4.83;;;;;;;;;;4202059;28;20441;-71
2021/12/19 09:06:56;;;;;;;10.80;3.47;;;;;;;;;;4193063;28;20274;-69
2021/12/19 09:09:23;;;;;;;14.13;4.47;;;;;;;;;;4203990;28;20234;-69
2021/12/19 09:11:50;;;;;;;15.27;3.70;;;;;;;;;;4193766;28;20458;-55
2021/12/19 09:14:16;;;;;;;9.83;3.40;;;;;;;;;;4215954;28;20420;-55
2021/12/19 09:16:42;;;;;;;8.27;3.53;;;;;;;;;;4201133;28;20336;-75
2021/12/19 09:19:11;;;;;;;14.93;3.57;;;;;;;;;;4184191;28;21601;-64
2021/12/19 09:21:38;;;;;;;10.30;3.23;;;;;;;;;;4188308;28;20227;-70
2021/12/19 09:24:04;;;;;;;12.23;2.80;;;;;;;;;;4194071;28;20248;-74
2021/12/19 09:26:32;;;;;;;13.07;3.40;;;;;;;;;;4210872;28;20326;-71
2021/12/19 09:28:59;;;;;;;10.13;3.47;;;;;;;;;;4218733;28;20664;-74
2021/12/19 09:31:26;;;;;;;14.67;3.57;;;;;;;;;;4190510;28;20325;-74
2021/12/19 09:33:52;;;;;;;14.63;3.30;;;;;;;;;;4191860;28;21712;-75
2021/12/19 09:36:19;;;;;;;13.53;3.40;;;;;;;;;;4197927;28;20349;-73
2021/12/19 09:38:48;;;;;;;13.03;3.53;;;;;;;;;;4198262;28;22762;-74
2021/12/19 09:41:27;;;;;;;10.10;3.10;;;;;;;;;;4195247;28;20292;-71
2021/12/19 09:43:56;;;;;;;12.63;2.93;;;;;;;;;;4200565;28;20248;-72
2021/12/19 09:46:28;;;;;;;9.77;3.80;;;;;;;;;;4190453;28;22604;-71
2021/12/19 09:48:54;;;;;;;7.90;3.20;;;;;;;;;;4193072;28;23743;-72
2021/12/19 09:51:21;;;;;;;8.37;2.87;;;;;;;;;;4205295;28;20271;-73
2021/12/19 09:53:47;;;;;;;12.70;3.00;;;;;;;;;;4200383;28;21301;-69
2021/12/19 09:56:14;;;;;;;12.83;2.80;;;;;;;;;;4200651;28;21610;-70
2021/12/19 09:58:41;;;;;;;7.50;2.60;;;;;;;;;;4195655;28;21267;-73
2021/12/19 10:01:09;;;;;;;14.90;3.80;;;;;;;;;;4189348;28;20229;-71
2021/12/19 10:03:36;;;;;;;8.20;2.93;;;;;;;;;;4190641;28;20233;-74
2021/12/19 10:06:16;;;;;;;11.80;3.13;;;;;;;;;;4193009;28;21888;-72
2021/12/19 10:08:44;;;;;;;8.80;2.80;;;;;;;;;;4183899;28;22207;-56
2021/12/19 10:11:31;;;;;;;5.53;2.30;;;;;;;;;;4208872;28;20233;-70
2021/12/19 10:13:57;;;;;;;10.57;2.90;;;;;;;;;;4191380;28;20236;-70
2021/12/19 10:16:29;;;;;;;10.37;3.10;;;;;;;;;;4185613;28;23008;-70
2021/12/19 10:18:57;;;;;;;8.23;2.57;;;;;;;;;;4200134;28;20307;-73
2021/12/19 10:21:24;;;;;;;11.00;2.47;;;;;;;;;;4196655;28;20498;-71
2021/12/19 10:23:51;;;;;;;12.63;2.83;;;;;;;;;;4178830;28;21236;-72
2021/12/19 10:26:18;;;;;;;10.33;2.60;;;;;;;;;;4198162;28;20252;-71
2021/12/19 10:29:02;;;;;;;7.30;2.93;;;;;;;;;;4185600;28;20270;-72
2021/12/19 10:31:29;;;;;;;12.10;2.90;;;;;;;;;;4202990;28;20241;-73
2021/12/19 10:33:56;;;;;;;8.77;2.83;;;;;;;;;;4186559;28;20374;-70
2021/12/19 10:36:23;;;;;;;13.13;2.80;;;;;;;;;;4211430;28;22940;-71
2021/12/19 10:38:52;;;;;;;11.03;2.87;;;;;;;;;;4198331;28;21651;-73
2021/12/19 10:41:32;;;;;;;10.93;2.97;;;;;;;;;;4198931;28;21927;-76
2021/12/19 10:44:06;;;;;;;12.57;3.43;;;;;;;;;;4193245;28;20336;-73
2021/12/19 10:46:40;;;;;;;9.30;3.17;;;;;;;;;;4190583;28;21564;-71
2021/12/19 10:49:22;;;;;;;10.30;2.63;;;;;;;;;;4178788;28;20226;-70
2021/12/19 10:51:49;;;;;;;9.83;3.10;;;;;;;;;;4185842;28;20238;-73
2021/12/19 10:54:16;;;;;;;8.17;2.83;;;;;;;;;;4215284;28;20240;-71
2021/12/19 10:56:42;;;;;;;12.43;2.90;;;;;;;;;;4181140;28;20237;-69
2021/12/19 10:59:11;;;;;;;15.63;3.77;;;;;;;;;;4209205;28;20275;-71
2021/12/19 11:01:38;;;;;;;11.50;3.33;;;;;;;;;;4186113;28;20243;-70
2021/12/19 11:04:08;;;;;;;8.00;2.63;;;;;;;;;;4199847;28;21289;-70
2021/12/19 11:06:50;;;;;;;13.97;3.30;;;;;;;;;;4190753;28;20954;-75
2021/12/19 11:09:18;;;;;;;12.40;3.67;;;;;;;;;;4184225;28;25369;-73
2021/12/19 11:11:56;;;;;;;11.50;3.20;;;;;;;;;;4198198;28;21772;-75
2021/12/19 11:14:27;;;;;;;14.73;3.37;;;;;;;;;;4189404;28;20236;-75
2021/12/19 11:16:55;;;;;;;17.53;3.30;;;;;;;;;;4192500;28;26507;-75
2021/12/19 11:19:22;;;;;;;15.83;3.37;;;;;;;;;;4184490;28;20260;-75
2021/12/19 11:22:09;;;;;;;13.13;3.43;;;;;;;;;;4226047;28;20300;-74
2021/12/19 11:24:36;;;;;;;15.00;3.37;;;;;;;;;;4204865;28;20368;-71
2021/12/19 11:27:04;;;;;;;13.13;3.70;;;;;;;;;;4200151;28;20249;-73
2021/12/19 11:29:30;;;;;;;11.43;3.40;;;;;;;;;;4188395;28;20244;-74
2021/12/19 11:32:00;;;;;;;15.07;3.60;;;;;;;;;;4203308;28;20235;-75
2021/12/19 11:34:35;;;;;;;12.30;3.53;;;;;;;;;;4191020;28;20240;-74
2021/12/19 11:37:08;;;;;;;12.47;3.83;;;;;;;;;;4196705;28;20244;-72
2021/12/19 11:39:37;;;;;;;13.60;3.27;;;;;;;;;;4196271;28;20551;-64
2021/12/19 11:42:06;;;;;;;8.37;3.20;;;;;;;;;;4186217;28;20225;-71
2021/12/19 11:44:34;;;;;;;15.93;3.50;;;;;;;;;;4205424;28;21700;-74
2021/12/19 11:47:10;;;;;;;11.47;3.30;;;;;;;;;;4207428;28;20236;-70
2021/12/19 11:49:37;;;;;;;16.00;4.53;;;;;;;;;;4194059;28;20291;-72
2021/12/19 11:52:26;;;;;;;17.97;4.13;;;;;;;;;;4194825;28;20245;-70
2021/12/19 11:55:11;;;;;;;11.43;3.17;;;;;;;;;;4195012;28;20243;-74
2021/12/19 11:57:38;;;;;;;13.10;3.60;;;;;;;;;;4200066;28;20348;-70
2021/12/19 12:00:23;;;;;;;11.97;3.57;;;;;;;;;;4195480;28;20256;-70
2021/12/19 12:02:49;;;;;;;19.37;4.70;;;;;;;;;;4187368;28;20237;-71
2021/12/19 12:05:16;;;;;;;14.27;3.87;;;;;;;;;;4193376;28;20373;-70
2021/12/19 12:08:01;;;;;;;12.63;3.50;;;;;;;;;;4189489;28;20237;-70
2021/12/19 12:10:29;;;;;;;13.97;3.33;;;;;;;;;;4195648;28;23043;-71
2021/12/19 12:12:55;;;;;;;12.83;3.73;;;;;;;;;;4187001;28;21346;-72
2021/12/19 12:15:25;;;;;;;10.70;3.30;;;;;;;;;;4194263;28;20398;-70
2021/12/19 12:17:54;;;;;;;10.67;3.70;;;;;;;;;;4204581;28;20371;-69
2021/12/19 12:20:21;;;;;;;9.83;3.43;;;;;;;;;;4202053;28;20241;-70
2021/12/19 12:22:55;;;;;;;14.83;3.37;;;;;;;;;;4206834;28;20296;-70
2021/12/19 12:25:31;;;;;;;15.80;3.73;;;;;;;;;;4194900;28;20247;-72
2021/12/19 12:28:04;;;;;;;11.50;3.33;;;;;;;;;;4187816;28;20623;-71
2021/12/19 12:30:30;;;;;;;20.77;4.07;;;;;;;;;;4193673;28;23972;-72
2021/12/19 12:32:58;;;;;;;13.00;3.43;;;;;;;;;;4194311;28;20248;-70
2021/12/19 12:35:25;;;;;;;19.00;3.90;;;;;;;;;;4188611;28;20400;-68
2021/12/19 12:37:54;;;;;;;11.80;4.37;;;;;;;;;;4202229;28;23455;-68
2021/12/19 12:40:43;;;;;;;17.93;3.90;;;;;;;;;;4205839;28;20280;-70
2021/12/19 12:43:11;;;;;;;17.07;3.70;;;;;;;;;;4182489;28;20233;-66
2021/12/19 12:45:50;;;;;;;14.70;3.50;;;;;;;;;;4184629;28;20229;-68
2021/12/19 12:48:33;;;;;;;16.37;3.77;;;;;;;;;;4184401;28;20740;-65
2021/12/19 12:51:00;;;;;;;19.27;4.00;;;;;;;;;;4181843;28;20322;-70
2021/12/19 12:53:32;;;;;;;15.90;3.67;;;;;;;;;;4193624;28;21631;-68
2021/12/19 12:56:03;;;;;;;21.20;4.03;;;;;;;;;;4212065;28;20621;-71
2021/12/19 12:58:34;;;;;;;17.43;4.03;;;;;;;;;;4205124;28;21588;-68
2021/12/19 13:01:14;;;;;;;12.57;3.77;;;;;;;;;;4218424;28;20237;-68
2021/12/19 13:03:57;;;;;;;15.27;3.97;;;;;;;;;;4190446;28;21651;-70
2021/12/19 13:06:34;;;;;;;17.33;4.40;;;;;;;;;;4189213;28;22347;-71
2021/12/19 13:09:18;;;;;;;14.60;3.73;;;;;;;;;;4201934;28;20233;-72
2021/12/19 13:11:45;;;;;;;13.70;4.13;;;;;;;;;;4212308;28;20244;-73
2021/12/19 13:14:14;;;;;;;21.07;6.87;;;;;;;;;;4198146;28;20237;-71
2021/12/19 13:16:41;;;;;;;18.20;5.73;;;;;;;;;;4191917;28;20326;-71
2021/12/19 13:19:07;;;;;;;13.23;4.33;;;;;;;;;;4209838;28;20244;-68
2021/12/19 13:21:53;;;;;;;11.50;3.50;;;;;;;;;;4216285;28;21629;-73
2021/12/19 13:24:21;;;;;;;11.33;3.43;;;;;;;;;;4214505;28;20293;-69
2021/12/19 13:27:03;;;;;;;13.37;4.60;;;;;;;;;;4198122;28;22684;-67
2021/12/19 13:29:30;;;;;;;12.90;4.37;;;;;;;;;;4209716;28;21708;-68
2021/12/19 13:32:15;;;;;;;12.23;4.50;;;;;;;;;;4199862;28;20262;-69
2021/12/19 13:34:42;;;;;;;14.80;4.03;;;;;;;;;;4201953;28;21603;-69
2021/12/19 13:37:08;;;;;;;14.73;4.27;;;;;;;;;;4197874;28;22156;-71
2021/12/19 13:39:35;;;;;;;12.40;3.60;;;;;;;;;;4194931;28;20237;-75
2021/12/19 13:42:08;;;;;;;10.27;3.03;;;;;;;;;;4193636;28;20237;-71
2021/12/19 13:44:35;;;;;;;8.57;2.50;;;;;;;;;;4209197;28;20304;-69
2021/12/19 13:47:09;;;;;;;15.43;3.20;;;;;;;;;;4215780;28;20706;-71
2021/12/19 13:49:35;;;;;;;11.20;2.60;;;;;;;;;;4200307;28;20285;-73
2021/12/19 13:52:03;;;;;;;10.20;2.80;;;;;;;;;;4215982;28;22062;-70
2021/12/19 13:54:31;;;;;;;7.93;2.47;;;;;;;;;;4201381;28;20473;-72
2021/12/19 13:56:58;;;;;;;6.70;2.10;;;;;;;;;;4197840;28;20289;-70
2021/12/19 13:59:25;;;;;;;7.03;2.53;;;;;;;;;;4210379;28;20351;-70
2021/12/19 14:01:51;;;;;;;7.33;2.33;;;;;;;;;;4204000;28;20240;-72
2021/12/19 14:04:19;;;;;;;5.67;2.20;;;;;;;;;;4196205;28;20686;-71
2021/12/19 14:06:48;;;;;;;8.87;2.60;;;;;;;;;;4203653;28;23043;-69
2021/12/19 14:09:15;;;;;;;10.17;2.30;;;;;;;;;;4209300;28;20237;-72
2021/12/19 14:11:44;;;;;;;6.23;2.10;;;;;;;;;;4211450;28;20240;-71
2021/12/19 14:14:25;;;;;;;7.27;2.00;;;;;;;;;;4203739;28;20699;-70
2021/12/19 14:17:02;;;;;;;4.60;2.10;;;;;;;;;;4192141;28;20650;-71
2021/12/19 14:19:30;;;;;;;7.23;1.80;;;;;;;;;;4194199;28;20322;-70
2021/12/19 14:22:09;;;;;;;6.57;1.70;;;;;;;;;;4215366;28;20236;-71
2021/12/19 14:24:38;;;;;;;6.83;1.80;;;;;;;;;;4233571;28;22275;-70
2021/12/19 14:27:27;;;;;;;5.23;1.93;;;;;;;;;;4198932;28;20304;-74
2021/12/19 14:30:00;;;;;;;5.93;2.20;;;;;;;;;;4197710;28;20244;-64
2021/12/19 14:32:34;;;;;;;9.03;1.97;;;;;;;;;;4204236;28;20605;-74
2021/12/19 14:35:04;;;;;;;7.63;2.13;;;;;;;;;;4213383;28;20744;-72
2021/12/19 14:37:32;;;;;;;7.50;2.10;;;;;;;;;;4201662;28;21012;-72
2021/12/19 14:40:04;;;;;;;6.73;2.33;;;;;;;;;;4200498;28;20304;-72
2021/12/19 14:42:32;;;;;;;10.43;2.57;;;;;;;;;;4190131;28;22039;-72
2021/12/19 14:44:59;;;;;;;6.67;2.17;;;;;;;;;;4201494;28;22292;-72
2021/12/19 14:47:35;;;;;;;13.17;2.90;;;;;;;;;;4221030;28;20674;-73
2021/12/19 14:50:09;;;;;;;8.10;2.70;;;;;;;;;;4184099;28;20232;-72
2021/12/19 14:52:36;;;;;;;9.90;3.70;;;;;;;;;;4189017;28;20236;-73
2021/12/19 14:55:13;;;;;;;9.93;2.77;;;;;;;;;;4201228;28;21775;-73
2021/12/19 14:57:41;;;;;;;15.20;4.10;;;;;;;;;;4184373;28;20241;-72
2021/12/19 15:00:08;;;;;;;11.30;3.37;;;;;;;;;;4173834;28;20242;-71
2021/12/19 15:02:34;;;;;;;8.27;2.93;;;;;;;;;;4180616;28;20303;-73
2021/12/19 15:05:02;;;;;;;9.73;2.53;;;;;;;;;;4185684;28;20820;-73
2021/12/19 15:07:30;;;;;;;9.03;2.80;;;;;;;;;;4182217;28;24592;-72
2021/12/19 15:09:56;;;;;;;7.97;2.87;;;;;;;;;;4193550;28;22397;-73
2021/12/19 15:12:23;;;;;;;9.93;2.83;;;;;;;;;;4206088;28;20235;-72
2021/12/19 15:14:49;;;;;;;9.33;2.40;;;;;;;;;;4193989;28;21753;-74
2021/12/19 15:17:16;;;;;;;13.23;3.30;;;;;;;;;;4180131;28;20403;-71
2021/12/19 15:19:42;;;;;;;8.63;2.53;;;;;;;;;;4192629;28;20308;-73
2021/12/19 15:22:09;;;;;;;8.20;3.03;;;;;;;;;;4178418;28;20683;-74
2021/12/19 15:24:37;;;;;;;7.43;2.00;;;;;;;;;;4181405;28;21180;-72
2021/12/19 15:27:03;;;;;;;5.00;1.40;;;;;;;;;;4201816;28;20331;-72
2021/12/19 15:29:30;;;;;;;5.47;1.40;;;;;;;;;;4182518;28;20234;-72
2021/12/19 15:31:56;;;;;;;5.67;1.17;;;;;;;;;;4178610;28;20233;-71
2021/12/19 15:34:22;;;;;;;4.23;1.40;;;;;;;;;;4186403;28;20233;-70
2021/12/19 15:36:49;;;;;;;2.80;1.17;;;;;;;;;;4186609;28;21864;-71
2021/12/19 15:39:16;;;;;;;5.33;1.00;;;;;;;;;;4202490;28;20245;-72
2021/12/19 15:41:42;;;;;;;3.07;0.90;;;;;;;;;;4180551;28;20333;-72
2021/12/19 15:44:08;;;;;;;2.57;0.90;;;;;;;;;;4179839;28;26038;-71
2021/12/19 15:46:35;;;;;;;0.87;0.60;;;;;;;;;;4189822;28;20298;-72